Řízení letového provozu České republiky
Letiste: LKTB Aktualizace: 20.10.2018 23:10:06  UTC
 METAR LKTB 20.10. 23:00 ...
METAR LKTB 202300Z 32010KT CAVOK 06/00 Q1027 NOSIG RMK REG QNH 1023=
 TAF LKTB 20.10. 23:00 ...
TAF LKTB 202300Z 2100/2206 35007KT 9999 SCT035      TEMPO 2104/2114 5000 BR BKN020=